sensor_id;sensor_type;location;lat;lon;timestamp;P1;durP1;ratioP1;P2;durP2;ratioP2
66609;SDS011;53468;48.276;14.416;2022-09-21T00:01:14;2.92;;;1.67;;
66609;SDS011;53468;48.276;14.416;2022-09-21T00:06:47;3.42;;;1.48;;
66609;SDS011;53468;48.276;14.416;2022-09-21T00:12:19;5.40;;;2.78;;
66609;SDS011;53468;48.276;14.416;2022-09-21T00:17:54;6.25;;;2.85;;
66609;SDS011;53468;48.276;14.416;2022-09-21T00:23:27;7.38;;;3.13;;
66609;SDS011;53468;48.276;14.416;2022-09-21T00:29:01;3.33;;;2.05;;
66609;SDS011;53468;48.276;14.416;2022-09-21T00:34:36;4.93;;;2.70;;
66609;SDS011;53468;48.276;14.416;2022-09-21T00:40:08;5.07;;;2.20;;
66609;SDS011;53468;48.276;14.416;2022-09-21T00:45:41;3.60;;;2.17;;
66609;SDS011;53468;48.276;14.416;2022-09-21T00:51:16;2.75;;;1.85;;
66609;SDS011;53468;48.276;14.416;2022-09-21T00:56:48;2.50;;;1.83;;
66609;SDS011;53468;48.276;14.416;2022-09-21T01:02:21;3.67;;;2.00;;
66609;SDS011;53468;48.276;14.416;2022-09-21T01:07:55;3.92;;;1.92;;
66609;SDS011;53468;48.276;14.416;2022-09-21T01:13:32;3.20;;;1.85;;
66609;SDS011;53468;48.276;14.416;2022-09-21T01:19:16;3.65;;;1.85;;
66609;SDS011;53468;48.276;14.416;2022-09-21T01:25:05;3.40;;;2.15;;
66609;SDS011;53468;48.276;14.416;2022-09-21T01:30:51;4.15;;;2.00;;
66609;SDS011;53468;48.276;14.416;2022-09-21T01:36:26;4.22;;;1.73;;
66609;SDS011;53468;48.276;14.416;2022-09-21T01:42:01;2.13;;;1.42;;
66609;SDS011;53468;48.276;14.416;2022-09-21T01:47:38;2.92;;;1.60;;
66609;SDS011;53468;48.276;14.416;2022-09-21T01:53:14;4.32;;;1.92;;
66609;SDS011;53468;48.276;14.416;2022-09-21T01:58:54;2.67;;;1.75;;
66609;SDS011;53468;48.276;14.416;2022-09-21T02:04:33;3.20;;;2.15;;
66609;SDS011;53468;48.276;14.416;2022-09-21T02:10:08;3.25;;;1.70;;
66609;SDS011;53468;48.276;14.416;2022-09-21T02:15:50;2.05;;;1.20;;
66609;SDS011;53468;48.276;14.416;2022-09-21T02:21:36;6.18;;;1.65;;
66609;SDS011;53468;48.276;14.416;2022-09-21T02:27:19;3.90;;;1.30;;
66609;SDS011;53468;48.276;14.416;2022-09-21T02:33:04;2.60;;;1.25;;
66609;SDS011;53468;48.276;14.416;2022-09-21T02:38:45;4.97;;;1.88;;
66609;SDS011;53468;48.276;14.416;2022-09-21T02:44:23;3.42;;;1.83;;
66609;SDS011;53468;48.276;14.416;2022-09-21T02:50:03;2.30;;;1.42;;
66609;SDS011;53468;48.276;14.416;2022-09-21T02:55:41;4.18;;;2.00;;
66609;SDS011;53468;48.276;14.416;2022-09-21T03:01:16;4.60;;;1.88;;
66609;SDS011;53468;48.276;14.416;2022-09-21T03:06:49;5.38;;;2.00;;
66609;SDS011;53468;48.276;14.416;2022-09-21T03:12:23;4.15;;;2.20;;
66609;SDS011;53468;48.276;14.416;2022-09-21T03:17:55;8.40;;;3.63;;
66609;SDS011;53468;48.276;14.416;2022-09-21T03:23:28;7.13;;;2.70;;
66609;SDS011;53468;48.276;14.416;2022-09-21T03:29:01;13.05;;;3.38;;
66609;SDS011;53468;48.276;14.416;2022-09-21T03:34:34;11.82;;;4.97;;
66609;SDS011;53468;48.276;14.416;2022-09-21T03:40:06;9.52;;;5.18;;
66609;SDS011;53468;48.276;14.416;2022-09-21T03:45:42;45.90;;;8.52;;
66609;SDS011;53468;48.276;14.416;2022-09-21T03:51:14;20.88;;;8.10;;
66609;SDS011;53468;48.276;14.416;2022-09-21T03:56:46;5.18;;;2.92;;
66609;SDS011;53468;48.276;14.416;2022-09-21T04:02:20;17.67;;;4.10;;
66609;SDS011;53468;48.276;14.416;2022-09-21T04:07:52;12.90;;;4.60;;
66609;SDS011;53468;48.276;14.416;2022-09-21T04:13:25;5.53;;;3.28;;
66609;SDS011;53468;48.276;14.416;2022-09-21T04:18:59;7.72;;;3.80;;
66609;SDS011;53468;48.276;14.416;2022-09-21T04:24:31;5.82;;;3.05;;
66609;SDS011;53468;48.276;14.416;2022-09-21T04:30:04;6.60;;;3.28;;
66609;SDS011;53468;48.276;14.416;2022-09-21T04:35:39;6.30;;;3.55;;
66609;SDS011;53468;48.276;14.416;2022-09-21T04:41:12;6.35;;;2.80;;
66609;SDS011;53468;48.276;14.416;2022-09-21T04:46:45;5.22;;;3.20;;
66609;SDS011;53468;48.276;14.416;2022-09-21T04:52:18;8.02;;;3.80;;
66609;SDS011;53468;48.276;14.416;2022-09-21T04:57:51;5.57;;;3.40;;
66609;SDS011;53468;48.276;14.416;2022-09-21T05:03:23;7.63;;;3.47;;
66609;SDS011;53468;48.276;14.416;2022-09-21T05:08:57;6.88;;;3.35;;
66609;SDS011;53468;48.276;14.416;2022-09-21T05:14:47;5.63;;;3.20;;
66609;SDS011;53468;48.276;14.416;2022-09-21T05:20:19;6.05;;;3.28;;
66609;SDS011;53468;48.276;14.416;2022-09-21T05:25:53;7.15;;;3.17;;
66609;SDS011;53468;48.276;14.416;2022-09-21T05:31:37;6.10;;;2.83;;
66609;SDS011;53468;48.276;14.416;2022-09-21T05:37:18;4.50;;;2.60;;
66609;SDS011;53468;48.276;14.416;2022-09-21T05:43:10;4.82;;;2.28;;
66609;SDS011;53468;48.276;14.416;2022-09-21T05:48:44;4.32;;;2.33;;
66609;SDS011;53468;48.276;14.416;2022-09-21T05:54:27;6.68;;;2.83;;
66609;SDS011;53468;48.276;14.416;2022-09-21T06:00:13;5.40;;;3.15;;
66609;SDS011;53468;48.276;14.416;2022-09-21T06:05:48;5.30;;;2.70;;
66609;SDS011;53468;48.276;14.416;2022-09-21T06:11:21;6.45;;;3.78;;
66609;SDS011;53468;48.276;14.416;2022-09-21T06:16:55;6.43;;;3.70;;
66609;SDS011;53468;48.276;14.416;2022-09-21T06:22:27;11.50;;;5.03;;
66609;SDS011;53468;48.276;14.416;2022-09-21T06:28:02;7.60;;;4.90;;
66609;SDS011;53468;48.276;14.416;2022-09-21T06:33:36;11.27;;;5.63;;
66609;SDS011;53468;48.276;14.416;2022-09-21T06:39:08;8.82;;;4.15;;
66609;SDS011;53468;48.276;14.416;2022-09-21T06:44:41;7.10;;;4.65;;
66609;SDS011;53468;48.276;14.416;2022-09-21T06:50:14;8.10;;;3.88;;
66609;SDS011;53468;48.276;14.416;2022-09-21T06:55:46;8.95;;;5.70;;
66609;SDS011;53468;48.276;14.416;2022-09-21T07:01:19;11.93;;;5.47;;
66609;SDS011;53468;48.276;14.416;2022-09-21T07:06:52;10.68;;;5.15;;
66609;SDS011;53468;48.276;14.416;2022-09-21T07:12:24;6.43;;;3.80;;
66609;SDS011;53468;48.276;14.416;2022-09-21T07:17:59;6.40;;;4.07;;
66609;SDS011;53468;48.276;14.416;2022-09-21T07:23:33;8.57;;;4.25;;
66609;SDS011;53468;48.276;14.416;2022-09-21T07:29:06;12.23;;;4.35;;
66609;SDS011;53468;48.276;14.416;2022-09-21T07:34:38;6.97;;;4.40;;
66609;SDS011;53468;48.276;14.416;2022-09-21T07:40:12;8.35;;;4.22;;
66609;SDS011;53468;48.276;14.416;2022-09-21T07:45:50;7.95;;;4.00;;
66609;SDS011;53468;48.276;14.416;2022-09-21T07:51:24;6.78;;;3.92;;
66609;SDS011;53468;48.276;14.416;2022-09-21T07:56:58;5.18;;;3.90;;
66609;SDS011;53468;48.276;14.416;2022-09-21T08:02:48;11.05;;;4.88;;
66609;SDS011;53468;48.276;14.416;2022-09-21T08:08:20;9.98;;;4.47;;
66609;SDS011;53468;48.276;14.416;2022-09-21T08:13:55;6.45;;;4.03;;
66609;SDS011;53468;48.276;14.416;2022-09-21T08:19:28;9.18;;;4.40;;
66609;SDS011;53468;48.276;14.416;2022-09-21T08:25:01;11.55;;;4.68;;
66609;SDS011;53468;48.276;14.416;2022-09-21T08:30:35;11.70;;;6.07;;
66609;SDS011;53468;48.276;14.416;2022-09-21T08:36:08;10.52;;;5.55;;
66609;SDS011;53468;48.276;14.416;2022-09-21T08:41:46;10.48;;;6.45;;
66609;SDS011;53468;48.276;14.416;2022-09-21T08:47:39;11.35;;;6.32;;
66609;SDS011;53468;48.276;14.416;2022-09-21T08:53:14;9.80;;;7.22;;
66609;SDS011;53468;48.276;14.416;2022-09-21T08:58:49;14.27;;;7.90;;
66609;SDS011;53468;48.276;14.416;2022-09-21T09:04:26;8.93;;;6.50;;
66609;SDS011;53468;48.276;14.416;2022-09-21T09:10:14;8.77;;;5.95;;
66609;SDS011;53468;48.276;14.416;2022-09-21T09:15:58;12.57;;;7.40;;
66609;SDS011;53468;48.276;14.416;2022-09-21T09:21:38;11.82;;;5.85;;
66609;SDS011;53468;48.276;14.416;2022-09-21T09:27:12;11.45;;;7.13;;
66609;SDS011;53468;48.276;14.416;2022-09-21T09:32:51;13.85;;;6.28;;
66609;SDS011;53468;48.276;14.416;2022-09-21T09:38:29;9.52;;;5.50;;
66609;SDS011;53468;48.276;14.416;2022-09-21T09:44:10;9.50;;;5.40;;
66609;SDS011;53468;48.276;14.416;2022-09-21T09:49:56;13.63;;;7.18;;
66609;SDS011;53468;48.276;14.416;2022-09-21T09:55:36;9.80;;;6.90;;
66609;SDS011;53468;48.276;14.416;2022-09-21T10:01:13;11.30;;;7.00;;
66609;SDS011;53468;48.276;14.416;2022-09-21T10:07:16;14.10;;;6.80;;
66609;SDS011;53468;48.276;14.416;2022-09-21T10:12:50;12.20;;;7.05;;
66609;SDS011;53468;48.276;14.416;2022-09-21T10:18:23;10.00;;;6.78;;
66609;SDS011;53468;48.276;14.416;2022-09-21T10:24:00;9.82;;;6.57;;
66609;SDS011;53468;48.276;14.416;2022-09-21T10:29:40;13.77;;;6.68;;
66609;SDS011;53468;48.276;14.416;2022-09-21T10:35:15;12.38;;;7.55;;
66609;SDS011;53468;48.276;14.416;2022-09-21T10:40:51;10.27;;;7.00;;
66609;SDS011;53468;48.276;14.416;2022-09-21T10:46:34;12.77;;;8.13;;
66609;SDS011;53468;48.276;14.416;2022-09-21T10:52:06;12.85;;;8.27;;
66609;SDS011;53468;48.276;14.416;2022-09-21T10:57:38;21.90;;;9.05;;
66609;SDS011;53468;48.276;14.416;2022-09-21T11:03:31;11.48;;;7.65;;
66609;SDS011;53468;48.276;14.416;2022-09-21T11:09:11;11.90;;;7.20;;
66609;SDS011;53468;48.276;14.416;2022-09-21T11:14:50;11.63;;;7.45;;
66609;SDS011;53468;48.276;14.416;2022-09-21T11:20:29;11.95;;;7.72;;
66609;SDS011;53468;48.276;14.416;2022-09-21T11:26:06;10.45;;;7.05;;
66609;SDS011;53468;48.276;14.416;2022-09-21T11:31:46;13.98;;;7.63;;
66609;SDS011;53468;48.276;14.416;2022-09-21T11:37:37;11.95;;;7.78;;
66609;SDS011;53468;48.276;14.416;2022-09-21T11:43:23;11.57;;;6.53;;
66609;SDS011;53468;48.276;14.416;2022-09-21T11:49:11;11.30;;;6.57;;
66609;SDS011;53468;48.276;14.416;2022-09-21T12:01:22;12.65;;;6.85;;
66609;SDS011;53468;48.276;14.416;2022-09-21T12:07:14;14.57;;;7.18;;
66609;SDS011;53468;48.276;14.416;2022-09-21T12:12:55;9.52;;;6.05;;
66609;SDS011;53468;48.276;14.416;2022-09-21T12:18:36;13.10;;;6.47;;
66609;SDS011;53468;48.276;14.416;2022-09-21T12:24:17;11.65;;;5.82;;
66609;SDS011;53468;48.276;14.416;2022-09-21T12:29:52;9.20;;;5.60;;
66609;SDS011;53468;48.276;14.416;2022-09-21T12:35:31;14.38;;;6.25;;
66609;SDS011;53468;48.276;14.416;2022-09-21T12:41:09;9.57;;;4.53;;
66609;SDS011;53468;48.276;14.416;2022-09-21T12:46:47;8.57;;;3.80;;
66609;SDS011;53468;48.276;14.416;2022-09-21T12:52:26;10.85;;;4.07;;
66609;SDS011;53468;48.276;14.416;2022-09-21T12:58:00;5.68;;;3.45;;
66609;SDS011;53468;48.276;14.416;2022-09-21T13:03:41;8.52;;;3.80;;
66609;SDS011;53468;48.276;14.416;2022-09-21T13:09:23;9.23;;;4.28;;
66609;SDS011;53468;48.276;14.416;2022-09-21T13:14:58;7.93;;;3.70;;
66609;SDS011;53468;48.276;14.416;2022-09-21T13:20:34;5.38;;;2.88;;
66609;SDS011;53468;48.276;14.416;2022-09-21T13:26:10;6.82;;;3.55;;
66609;SDS011;53468;48.276;14.416;2022-09-21T13:31:52;5.75;;;3.40;;
66609;SDS011;53468;48.276;14.416;2022-09-21T13:37:29;5.72;;;3.30;;
66609;SDS011;53468;48.276;14.416;2022-09-21T13:43:18;4.97;;;2.70;;
66609;SDS011;53468;48.276;14.416;2022-09-21T13:48:53;6.63;;;2.67;;
66609;SDS011;53468;48.276;14.416;2022-09-21T13:54:26;8.55;;;3.80;;
66609;SDS011;53468;48.276;14.416;2022-09-21T14:06:02;6.32;;;2.47;;
66609;SDS011;53468;48.276;14.416;2022-09-21T14:11:38;3.42;;;2.38;;
66609;SDS011;53468;48.276;14.416;2022-09-21T14:17:34;5.30;;;2.78;;
66609;SDS011;53468;48.276;14.416;2022-09-21T14:23:10;4.22;;;2.67;;
66609;SDS011;53468;48.276;14.416;2022-09-21T14:28:57;3.90;;;2.30;;
66609;SDS011;53468;48.276;14.416;2022-09-21T14:34:39;10.03;;;3.13;;
66609;SDS011;53468;48.276;14.416;2022-09-21T14:40:15;5.97;;;3.17;;
66609;SDS011;53468;48.276;14.416;2022-09-21T14:51:55;6.75;;;2.75;;
66609;SDS011;53468;48.276;14.416;2022-09-21T14:57:41;4.60;;;2.67;;
66609;SDS011;53468;48.276;14.416;2022-09-21T15:09:34;3.90;;;1.85;;
66609;SDS011;53468;48.276;14.416;2022-09-21T15:15:35;4.78;;;1.90;;
66609;SDS011;53468;48.276;14.416;2022-09-21T15:21:17;2.95;;;1.92;;
66609;SDS011;53468;48.276;14.416;2022-09-21T15:26:55;5.32;;;1.98;;
66609;SDS011;53468;48.276;14.416;2022-09-21T15:43:59;3.30;;;0.70;;
66609;SDS011;53468;48.276;14.416;2022-09-21T15:49:42;2.60;;;1.00;;
66609;SDS011;53468;48.276;14.416;2022-09-21T15:55:15;1.42;;;0.82;;
66609;SDS011;53468;48.276;14.416;2022-09-21T16:00:52;0.93;;;0.73;;
66609;SDS011;53468;48.276;14.416;2022-09-21T16:06:27;1.73;;;0.93;;
66609;SDS011;53468;48.276;14.416;2022-09-21T16:12:27;2.35;;;0.93;;
66609;SDS011;53468;48.276;14.416;2022-09-21T16:18:26;1.73;;;0.70;;
66609;SDS011;53468;48.276;14.416;2022-09-21T16:24:06;1.83;;;0.88;;
66609;SDS011;53468;48.276;14.416;2022-09-21T16:29:42;3.35;;;0.93;;
66609;SDS011;53468;48.276;14.416;2022-09-21T16:35:21;2.38;;;1.10;;
66609;SDS011;53468;48.276;14.416;2022-09-21T16:40:59;2.88;;;1.10;;
66609;SDS011;53468;48.276;14.416;2022-09-21T16:46:32;2.33;;;0.65;;
66609;SDS011;53468;48.276;14.416;2022-09-21T16:52:06;3.42;;;1.50;;
66609;SDS011;53468;48.276;14.416;2022-09-21T16:57:39;1.92;;;1.08;;
66609;SDS011;53468;48.276;14.416;2022-09-21T17:03:11;1.27;;;0.70;;
66609;SDS011;53468;48.276;14.416;2022-09-21T17:08:46;0.98;;;0.77;;
66609;SDS011;53468;48.276;14.416;2022-09-21T17:14:20;3.78;;;1.00;;
66609;SDS011;53468;48.276;14.416;2022-09-21T17:19:53;1.85;;;0.90;;
66609;SDS011;53468;48.276;14.416;2022-09-21T17:25:26;1.88;;;1.10;;
66609;SDS011;53468;48.276;14.416;2022-09-21T17:30:59;2.60;;;0.70;;
66609;SDS011;53468;48.276;14.416;2022-09-21T17:36:35;0.73;;;0.52;;
66609;SDS011;53468;48.276;14.416;2022-09-21T17:42:11;1.30;;;0.60;;
66609;SDS011;53468;48.276;14.416;2022-09-21T17:47:48;1.73;;;0.90;;
66609;SDS011;53468;48.276;14.416;2022-09-21T17:53:20;1.55;;;1.00;;
66609;SDS011;53468;48.276;14.416;2022-09-21T17:59:15;3.25;;;1.13;;
66609;SDS011;53468;48.276;14.416;2022-09-21T18:04:56;4.13;;;1.48;;
66609;SDS011;53468;48.276;14.416;2022-09-21T18:10:33;3.13;;;1.50;;
66609;SDS011;53468;48.276;14.416;2022-09-21T18:16:13;4.53;;;2.28;;
66609;SDS011;53468;48.276;14.416;2022-09-21T18:21:55;4.88;;;2.30;;
66609;SDS011;53468;48.276;14.416;2022-09-21T18:27:33;4.13;;;1.25;;
66609;SDS011;53468;48.276;14.416;2022-09-21T18:33:11;4.03;;;1.30;;
66609;SDS011;53468;48.276;14.416;2022-09-21T18:38:55;1.65;;;1.00;;
66609;SDS011;53468;48.276;14.416;2022-09-21T18:44:38;2.90;;;1.38;;
66609;SDS011;53468;48.276;14.416;2022-09-21T18:50:19;2.72;;;1.33;;
66609;SDS011;53468;48.276;14.416;2022-09-21T19:01:31;3.38;;;2.08;;
66609;SDS011;53468;48.276;14.416;2022-09-21T19:07:06;3.42;;;1.98;;
66609;SDS011;53468;48.276;14.416;2022-09-21T19:12:54;3.33;;;1.92;;
66609;SDS011;53468;48.276;14.416;2022-09-21T19:18:39;3.28;;;1.50;;
66609;SDS011;53468;48.276;14.416;2022-09-21T19:24:21;3.30;;;1.90;;
66609;SDS011;53468;48.276;14.416;2022-09-21T19:30:02;2.55;;;1.30;;
66609;SDS011;53468;48.276;14.416;2022-09-21T19:35:38;2.97;;;1.73;;
66609;SDS011;53468;48.276;14.416;2022-09-21T19:41:17;5.60;;;1.63;;
66609;SDS011;53468;48.276;14.416;2022-09-21T19:52:58;2.25;;;1.27;;
66609;SDS011;53468;48.276;14.416;2022-09-21T19:58:48;3.17;;;1.70;;
66609;SDS011;53468;48.276;14.416;2022-09-21T20:04:46;2.83;;;1.42;;
66609;SDS011;53468;48.276;14.416;2022-09-21T20:10:33;4.38;;;2.00;;
66609;SDS011;53468;48.276;14.416;2022-09-21T20:16:20;3.70;;;1.92;;
66609;SDS011;53468;48.276;14.416;2022-09-21T20:22:03;3.17;;;1.63;;
66609;SDS011;53468;48.276;14.416;2022-09-21T20:27:45;2.30;;;1.45;;
66609;SDS011;53468;48.276;14.416;2022-09-21T20:33:21;3.35;;;1.90;;
66609;SDS011;53468;48.276;14.416;2022-09-21T20:38:56;4.07;;;1.85;;
66609;SDS011;53468;48.276;14.416;2022-09-21T20:44:30;3.65;;;2.38;;
66609;SDS011;53468;48.276;14.416;2022-09-21T20:50:05;2.63;;;1.70;;
66609;SDS011;53468;48.276;14.416;2022-09-21T20:55:41;4.00;;;2.20;;
66609;SDS011;53468;48.276;14.416;2022-09-21T21:06:57;6.57;;;1.73;;
66609;SDS011;53468;48.276;14.416;2022-09-21T21:12:30;4.93;;;2.20;;
66609;SDS011;53468;48.276;14.416;2022-09-21T21:18:03;4.07;;;2.40;;
66609;SDS011;53468;48.276;14.416;2022-09-21T21:23:37;4.20;;;2.17;;
66609;SDS011;53468;48.276;14.416;2022-09-21T21:29:24;3.22;;;2.15;;
66609;SDS011;53468;48.276;14.416;2022-09-21T21:34:57;4.60;;;1.88;;
66609;SDS011;53468;48.276;14.416;2022-09-21T21:40:33;3.97;;;2.30;;
66609;SDS011;53468;48.276;14.416;2022-09-21T21:46:07;3.85;;;1.90;;
66609;SDS011;53468;48.276;14.416;2022-09-21T21:51:44;4.35;;;2.47;;
66609;SDS011;53468;48.276;14.416;2022-09-21T21:57:20;5.95;;;2.33;;
66609;SDS011;53468;48.276;14.416;2022-09-21T22:02:54;5.43;;;2.15;;
66609;SDS011;53468;48.276;14.416;2022-09-21T22:08:28;5.57;;;2.67;;
66609;SDS011;53468;48.276;14.416;2022-09-21T22:14:02;5.15;;;2.53;;
66609;SDS011;53468;48.276;14.416;2022-09-21T22:19:36;3.88;;;2.10;;
66609;SDS011;53468;48.276;14.416;2022-09-21T22:25:09;3.40;;;2.13;;
66609;SDS011;53468;48.276;14.416;2022-09-21T22:30:46;4.55;;;2.05;;
66609;SDS011;53468;48.276;14.416;2022-09-21T22:36:20;3.55;;;2.05;;
66609;SDS011;53468;48.276;14.416;2022-09-21T22:41:54;3.47;;;2.08;;
66609;SDS011;53468;48.276;14.416;2022-09-21T22:47:29;5.80;;;2.40;;
66609;SDS011;53468;48.276;14.416;2022-09-21T22:53:01;3.95;;;2.10;;
66609;SDS011;53468;48.276;14.416;2022-09-21T22:58:34;2.80;;;1.83;;
66609;SDS011;53468;48.276;14.416;2022-09-21T23:04:10;3.53;;;1.83;;
66609;SDS011;53468;48.276;14.416;2022-09-21T23:09:44;4.97;;;2.38;;
66609;SDS011;53468;48.276;14.416;2022-09-21T23:15:16;3.28;;;2.05;;
66609;SDS011;53468;48.276;14.416;2022-09-21T23:26:40;2.33;;;1.70;;
66609;SDS011;53468;48.276;14.416;2022-09-21T23:32:13;3.17;;;1.98;;
66609;SDS011;53468;48.276;14.416;2022-09-21T23:37:47;3.72;;;1.85;;
66609;SDS011;53468;48.276;14.416;2022-09-21T23:43:20;4.35;;;1.92;;
66609;SDS011;53468;48.276;14.416;2022-09-21T23:48:52;4.03;;;1.80;;
66609;SDS011;53468;48.276;14.416;2022-09-21T23:54:27;4.22;;;2.08;;
66609;SDS011;53468;48.276;14.416;2022-09-21T23:59:59;3.35;;;1.90;;
